createdAt,value
2017-04-11T00:00:25.425Z,20.88
2017-04-11T00:01:35.958Z,20.97
2017-04-11T00:02:46.307Z,20.97
2017-04-11T00:03:56.626Z,20.88
2017-04-11T00:05:06.907Z,21.17
2017-04-11T00:06:17.198Z,20.88
2017-04-11T00:07:27.476Z,21.17
2017-04-11T00:08:37.774Z,20.88
2017-04-11T00:09:47.771Z,20.97
2017-04-11T00:10:58.095Z,20.97
2017-04-11T00:12:09.409Z,20.97
2017-04-11T00:13:19.941Z,20.88
2017-04-11T00:14:30.225Z,20.97
2017-04-11T00:15:40.496Z,20.78
2017-04-11T00:16:50.792Z,20.97
2017-04-11T00:18:00.782Z,20.97
2017-04-11T00:19:11.372Z,20.78
2017-04-11T00:20:21.665Z,20.97
2017-04-11T00:21:31.633Z,20.97
2017-04-11T00:22:41.912Z,20.88
2017-04-11T00:23:52.197Z,20.97
2017-04-11T00:25:02.470Z,20.97
2017-04-11T00:26:12.453Z,20.88
2017-04-11T00:27:22.453Z,20.88
2017-04-11T00:28:32.775Z,20.88
2017-04-11T00:29:43.064Z,20.59
2017-04-11T00:30:53.306Z,20.97
2017-04-11T00:32:03.602Z,20.59
2017-04-11T00:33:13.908Z,20.68
2017-04-11T00:34:24.193Z,20.88
2017-04-11T00:35:34.507Z,21.17
2017-04-11T00:36:45.040Z,20.59
2017-04-11T00:37:55.016Z,20.97
2017-04-11T00:39:05.332Z,20.97
2017-04-11T00:40:15.702Z,20.88
2017-04-11T00:41:25.693Z,20.88
2017-04-11T00:42:36.233Z,21.26
2017-04-11T00:43:46.565Z,21.36
2017-04-11T00:44:56.858Z,21.17
2017-04-11T00:46:07.159Z,20.97
2017-04-11T00:47:17.436Z,21.26
2017-04-11T00:48:27.656Z,21.26
2017-04-11T00:49:37.620Z,20.88
2017-04-11T00:50:47.910Z,20.88
2017-04-11T00:51:58.182Z,21.07
2017-04-11T00:53:08.163Z,20.88
2017-04-11T00:54:18.701Z,20.88
2017-04-11T00:55:28.992Z,20.78
2017-04-11T00:56:39.282Z,20.78
2017-04-11T00:57:49.579Z,20.88
2017-04-11T00:58:59.854Z,20.88
2017-04-11T01:00:10.096Z,20.88
2017-04-11T01:01:19.764Z,21.26
2017-04-11T01:02:30.061Z,21.17
2017-04-11T01:03:39.733Z,21.07
2017-04-11T01:04:50.009Z,21.07
2017-04-11T01:06:00.578Z,21.25
2017-04-11T01:07:10.869Z,21.07
2017-04-11T01:08:20.843Z,21.06
2017-04-11T01:09:31.136Z,21.17
2017-04-11T01:10:41.414Z,21.26
2017-04-11T01:11:51.687Z,21.17
2017-04-11T01:13:01.967Z,21.07
2017-04-11T01:14:11.939Z,21.15
2017-04-11T01:15:21.614Z,21.15
2017-04-11T01:16:31.889Z,21.25
2017-04-11T01:17:42.195Z,21.26
2017-04-11T01:18:52.475Z,21.25
2017-04-11T01:20:02.446Z,21.25
2017-04-11T01:21:12.421Z,21.15
2017-04-11T01:22:22.078Z,21.15
2017-04-11T01:23:32.694Z,21.15
2017-04-11T01:24:42.973Z,21.15
2017-04-11T01:25:53.269Z,21.17
2017-04-11T01:27:03.239Z,21.17
2017-04-11T01:28:13.021Z,21.44
2017-04-11T01:29:23.567Z,21.45
2017-04-11T01:30:33.537Z,21.35
2017-04-11T01:31:43.825Z,21.25
2017-04-11T01:32:53.829Z,21.44
2017-04-11T01:34:04.112Z,21.44
2017-04-11T01:35:14.659Z,21.35
2017-04-11T01:36:24.953Z,21.26
2017-04-11T01:37:34.926Z,21.17
2017-04-11T01:38:44.902Z,21.36
2017-04-11T01:39:54.874Z,21.44
2017-04-11T01:41:05.095Z,21.35
2017-04-11T01:42:15.391Z,21.15
2017-04-11T01:43:25.682Z,21.35
2017-04-11T01:44:35.961Z,21.36
2017-04-11T01:45:46.236Z,21.36
2017-04-11T01:46:56.774Z,21.45
2017-04-11T01:48:07.048Z,21.25
2017-04-11T01:49:17.334Z,21.35
2017-04-11T01:50:27.621Z,21.44
2017-04-11T01:51:37.900Z,21.73
2017-04-11T01:52:48.437Z,21.73
2017-04-11T01:53:58.432Z,21.73
2017-04-11T01:55:08.733Z,21.64
2017-04-11T01:56:19.012Z,21.64
2017-04-11T01:57:29.293Z,21.64
2017-04-11T01:58:39.566Z,21.83
2017-04-11T01:59:49.547Z,21.73
2017-04-11T02:00:59.528Z,21.54
2017-04-11T02:02:09.715Z,21.83
2017-04-11T02:03:20.004Z,21.64
2017-04-11T02:04:30.606Z,21.73
2017-04-11T02:05:40.886Z,21.54
2017-04-11T02:06:51.176Z,21.44
2017-04-11T02:08:01.454Z,21.64
2017-04-11T02:09:11.484Z,21.54
2017-04-11T02:10:21.743Z,21.64
2017-04-11T02:11:32.070Z,21.83
2017-04-11T02:12:42.353Z,21.83
2017-04-11T02:13:52.629Z,21.83
2017-04-11T02:15:02.608Z,21.44
2017-04-11T02:16:13.191Z,21.54
2017-04-11T02:17:23.492Z,21.73
2017-04-11T02:18:33.779Z,21.64
2017-04-11T02:19:43.751Z,21.64
2017-04-11T02:20:53.718Z,21.92
2017-04-11T02:22:04.263Z,21.64
2017-04-11T02:23:14.548Z,21.73
2017-04-11T02:24:24.839Z,21.54
2017-04-11T02:25:34.820Z,21.64
2017-04-11T02:26:44.788Z,21.83
2017-04-11T02:27:55.334Z,21.64
2017-04-11T02:29:05.314Z,21.54
2017-04-11T02:30:15.292Z,21.64
2017-04-11T02:31:25.587Z,21.64
2017-04-11T02:32:35.557Z,21.73
2017-04-11T02:33:46.103Z,21.73
2017-04-11T02:34:56.108Z,21.83
2017-04-11T02:36:06.402Z,22.02
2017-04-11T02:37:16.687Z,21.92
2017-04-11T02:38:27.220Z,21.83
2017-04-11T02:39:37.758Z,21.92
2017-04-11T02:40:47.731Z,21.92
2017-04-11T02:41:58.022Z,21.92
2017-04-11T02:43:08.313Z,21.92
2017-04-11T02:44:18.898Z,21.92
2017-04-11T02:45:29.507Z,21.92
2017-04-11T02:46:39.483Z,21.92
2017-04-11T02:47:49.149Z,21.92
2017-04-11T02:48:59.454Z,21.92
2017-04-11T02:50:09.433Z,22.02
2017-04-11T02:51:19.984Z,21.92
2017-04-11T02:52:30.272Z,21.83
2017-04-11T02:53:40.562Z,22.02
2017-04-11T02:54:50.531Z,21.92
2017-04-11T02:56:00.524Z,22.02
2017-04-11T02:57:11.298Z,22.12
2017-04-11T02:58:21.577Z,22.02
2017-04-11T02:59:31.856Z,22.02
2017-04-11T03:00:41.523Z,22.02
2017-04-11T03:01:51.811Z,21.92
2017-04-11T03:03:02.348Z,21.92
2017-04-11T03:04:12.691Z,21.83
2017-04-11T03:05:22.987Z,21.92
2017-04-11T03:06:32.652Z,21.92
2017-04-11T03:07:42.931Z,22.02
2017-04-11T03:08:53.212Z,22.02
2017-04-11T03:10:03.495Z,22.02
2017-04-11T03:11:13.178Z,22.12
2017-04-11T03:12:23.462Z,22.12
2017-04-11T03:13:33.443Z,22.22
2017-04-11T03:14:43.665Z,22.22
2017-04-11T03:15:53.954Z,21.92
2017-04-11T03:17:03.931Z,22.31
2017-04-11T03:18:14.254Z,22.31
2017-04-11T03:19:24.535Z,22.12
2017-04-11T03:20:34.759Z,22.22
2017-04-11T03:21:45.038Z,22.31
2017-04-11T03:22:54.707Z,22.31
2017-04-11T03:24:04.778Z,22.22
2017-04-11T03:25:15.073Z,22.12
2017-04-11T03:26:25.673Z,21.83
2017-04-11T03:27:35.948Z,21.92
2017-04-11T03:28:46.256Z,22.02
2017-04-11T03:29:56.545Z,22.12
2017-04-11T03:31:06.539Z,22.12
2017-04-11T03:32:16.802Z,22.12
2017-04-11T03:33:27.118Z,22.12
2017-04-11T03:34:37.411Z,22.02
2017-04-11T03:35:47.702Z,22.12
2017-04-11T03:36:58.021Z,22.31
2017-04-11T03:38:08.597Z,22.12
2017-04-11T03:39:18.571Z,21.92
2017-04-11T03:40:28.856Z,22.02
2017-04-11T03:41:38.832Z,22.22
2017-04-11T03:42:49.120Z,21.92
2017-04-11T03:43:59.345Z,22.12
2017-04-11T03:45:09.318Z,22.12
2017-04-11T03:46:19.302Z,22.02
2017-04-11T03:47:29.576Z,22.12
2017-04-11T03:48:39.873Z,22.12
2017-04-11T03:49:50.469Z,22.02
2017-04-11T03:51:00.759Z,22.12
2017-04-11T03:52:10.747Z,21.92
2017-04-11T03:53:20.722Z,21.92
2017-04-11T03:54:30.380Z,22.02
2017-04-11T03:55:40.908Z,22.02
2017-04-11T03:56:51.189Z,21.83
2017-04-11T03:58:00.848Z,22.12
2017-04-11T03:59:11.143Z,21.92
2017-04-11T04:00:21.433Z,21.92
2017-04-11T04:01:31.970Z,21.92
2017-04-11T04:02:41.985Z,22.12
2017-04-11T04:03:51.973Z,22.12
2017-04-11T04:05:01.964Z,22.22
2017-04-11T04:06:12.310Z,22.12
2017-04-11T04:07:22.856Z,21.92
2017-04-11T04:08:33.140Z,22.02
2017-04-11T04:09:43.111Z,21.92
2017-04-11T04:10:53.110Z,21.92
2017-04-11T04:12:03.081Z,22.31
2017-04-11T04:13:13.619Z,21.92
2017-04-11T04:14:23.623Z,21.92
2017-04-11T04:15:33.900Z,21.73
2017-04-11T04:16:44.416Z,21.83
2017-04-11T04:17:54.398Z,21.73
2017-04-11T04:19:04.942Z,21.64
2017-04-11T04:20:15.244Z,21.73
2017-04-11T04:21:25.533Z,21.54
2017-04-11T04:22:35.822Z,21.54
2017-04-11T04:23:46.102Z,21.73
2017-04-11T04:24:56.679Z,21.54
2017-04-11T04:26:06.963Z,21.73
2017-04-11T04:27:17.253Z,21.44
2017-04-11T04:28:27.532Z,21.35
2017-04-11T04:29:37.819Z,21.35
2017-04-11T04:30:48.352Z,21.35
2017-04-11T04:31:58.327Z,21.15
2017-04-11T04:33:08.719Z,21.25
2017-04-11T04:34:19.000Z,20.97
2017-04-11T04:35:29.284Z,21.06
2017-04-11T04:36:39.854Z,20.77
2017-04-11T04:37:49.842Z,20.97
2017-04-11T04:39:00.130Z,20.97
2017-04-11T04:40:10.144Z,20.87
2017-04-11T04:41:20.133Z,20.67
2017-04-11T04:42:30.679Z,20.58
2017-04-11T04:43:40.645Z,20.97
2017-04-11T04:44:50.638Z,20.87
2017-04-11T04:46:00.603Z,21.25
2017-04-11T04:47:10.923Z,21.15
2017-04-11T04:48:21.474Z,21.15
2017-04-11T04:49:31.757Z,20.97
2017-04-11T04:50:41.750Z,20.97
2017-04-11T04:51:52.056Z,20.77
2017-04-11T04:53:02.340Z,20.77
2017-04-11T04:54:12.891Z,21.15
2017-04-11T04:55:23.203Z,20.67
2017-04-11T04:56:33.485Z,21.25
2017-04-11T04:57:43.770Z,20.97
2017-04-11T04:58:54.087Z,21.06
2017-04-11T05:00:04.308Z,21.15
2017-04-11T05:01:14.594Z,20.58
2017-04-11T05:02:24.890Z,20.58
2017-04-11T05:03:35.174Z,21.15
2017-04-11T05:04:45.661Z,21.15
2017-04-11T05:05:56.202Z,21.15
2017-04-11T05:07:06.487Z,21.25
2017-04-11T05:08:16.783Z,20.77
2017-04-11T05:09:27.070Z,20.68
2017-04-11T05:10:37.045Z,20.59
2017-04-11T05:11:47.590Z,21.25
2017-04-11T05:12:57.583Z,20.59
2017-04-11T05:14:07.555Z,21.26
2017-04-11T05:15:17.538Z,20.97
2017-04-11T05:16:27.515Z,21.07
2017-04-11T05:17:37.744Z,21.07
2017-04-11T05:18:48.029Z,21.07
2017-04-11T05:19:58.328Z,20.68
2017-04-11T05:21:08.620Z,20.88
2017-04-11T05:22:18.895Z,20.59
2017-04-11T05:23:29.470Z,20.78
2017-04-11T05:24:39.474Z,20.88
2017-04-11T05:25:49.788Z,20.5
2017-04-11T05:26:59.762Z,20.5
2017-04-11T05:28:10.054Z,20.21
2017-04-11T05:29:20.745Z,20.31
2017-04-11T05:30:31.067Z,20.21
2017-04-11T05:31:41.037Z,20.21
2017-04-11T05:32:51.344Z,20.21
2017-04-11T05:34:01.634Z,20.7
2017-04-11T05:35:12.242Z,20.12
2017-04-11T05:36:22.526Z,20.02
2017-04-11T05:37:32.807Z,20.3
2017-04-11T05:38:43.101Z,20.31
2017-04-11T05:39:53.075Z,20.31
2017-04-11T05:41:03.612Z,20.31
2017-04-11T05:42:13.907Z,20.21
2017-04-11T05:43:23.879Z,20.2
2017-04-11T05:44:34.168Z,20.59
2017-04-11T05:45:44.455Z,20.68
2017-04-11T05:46:54.684Z,20.7
2017-04-11T05:48:04.965Z,20.59
2017-04-11T05:49:15.246Z,20.68
2017-04-11T05:50:25.540Z,20.5
2017-04-11T05:51:35.528Z,20.68
2017-04-11T05:52:46.060Z,20.5
2017-04-11T05:53:56.361Z,20.7
2017-04-11T05:55:06.667Z,20.68
2017-04-11T05:56:16.636Z,20.68
2017-04-11T05:57:26.705Z,20.68
2017-04-11T05:58:37.240Z,20.68
2017-04-11T05:59:47.418Z,20.68
2017-04-11T06:00:57.705Z,20.68
2017-04-11T06:02:07.689Z,20.59
2017-04-11T06:03:17.992Z,20.59
2017-04-11T06:04:28.214Z,20.68
2017-04-11T06:05:38.502Z,20.88
2017-04-11T06:06:48.795Z,20.78
2017-04-11T06:07:59.288Z,20.59
2017-04-11T06:09:09.262Z,20.59
2017-04-11T06:10:19.846Z,20.68
2017-04-11T06:11:30.135Z,20.59
2017-04-11T06:12:40.418Z,20.59
2017-04-11T06:13:50.395Z,20.59
2017-04-11T06:15:00.703Z,20.78
2017-04-11T06:16:10.946Z,20.5
2017-04-11T06:17:20.947Z,20.59
2017-04-11T06:18:31.235Z,20.5
2017-04-11T06:19:41.213Z,20.5
2017-04-11T06:20:51.182Z,20.78
2017-04-11T06:22:01.731Z,20.59
2017-04-11T06:23:12.021Z,20.5
2017-04-11T06:24:22.302Z,20.5
2017-04-11T06:25:32.284Z,20.59
2017-04-11T06:26:42.563Z,20.59
2017-04-11T06:27:53.180Z,20.59
2017-04-11T06:29:03.151Z,20.59
2017-04-11T06:30:13.134Z,20.5
2017-04-11T06:31:23.092Z,20.5
2017-04-11T06:32:33.393Z,20.59
2017-04-11T06:33:43.950Z,20.59
2017-04-11T06:34:54.240Z,20.5
2017-04-11T06:36:04.522Z,20.59
2017-04-11T06:37:14.486Z,20.5
2017-04-11T06:38:24.155Z,20.59
2017-04-11T06:39:34.684Z,20.68
2017-04-11T06:40:44.971Z,20.6
2017-04-11T06:41:55.258Z,20.5
2017-04-11T06:43:05.232Z,20.5
2017-04-11T06:44:15.526Z,20.5
2017-04-11T06:45:26.057Z,20.59
2017-04-11T06:46:36.347Z,20.5
2017-04-11T06:47:46.651Z,20.59
2017-04-11T06:48:56.644Z,20.89
2017-04-11T06:50:06.628Z,20.68
2017-04-11T06:51:17.203Z,20.88
2017-04-11T06:52:27.502Z,20.78
2017-04-11T06:53:37.794Z,20.59
2017-04-11T06:54:47.770Z,20.5
2017-04-11T06:55:57.750Z,20.88
2017-04-11T06:57:07.998Z,20.97
2017-04-11T06:58:18.300Z,20.88
2017-04-11T06:59:28.593Z,20.88
2017-04-11T07:00:38.973Z,20.88
2017-04-11T07:01:49.281Z,20.88
2017-04-11T07:02:59.509Z,20.78
2017-04-11T07:04:09.480Z,20.97
2017-04-11T07:05:19.765Z,20.88
2017-04-11T07:06:29.796Z,20.97
2017-04-11T07:07:39.661Z,20.97
2017-04-11T07:08:49.906Z,20.97
2017-04-11T07:10:00.253Z,20.88
2017-04-11T07:11:10.225Z,21.07
2017-04-11T07:12:20.519Z,20.88
2017-04-11T07:13:30.183Z,20.97
2017-04-11T07:14:40.718Z,20.97
2017-04-11T07:15:51.016Z,21.07
2017-04-11T07:17:00.983Z,20.89
2017-04-11T07:18:11.270Z,20.98
2017-04-11T07:19:21.262Z,20.78
2017-04-11T07:20:31.801Z,21.07
2017-04-11T07:21:42.088Z,20.78
2017-04-11T07:22:51.757Z,20.78
2017-04-11T07:24:02.038Z,20.79
2017-04-11T07:25:11.704Z,20.98
2017-04-11T07:26:22.325Z,20.89
2017-04-11T07:27:32.617Z,20.89
2017-04-11T07:28:42.589Z,20.89
2017-04-11T07:29:52.577Z,20.79
2017-04-11T07:31:02.552Z,20.97
2017-04-11T07:32:12.791Z,21.07
2017-04-11T07:33:23.314Z,21.08
2017-04-11T07:34:33.315Z,20.97
2017-04-11T07:35:43.614Z,20.89
2017-04-11T07:36:53.294Z,20.88
2017-04-11T07:38:03.823Z,20.98
2017-04-11T07:39:14.120Z,20.88
2017-04-11T07:40:23.784Z,20.78
2017-04-11T07:41:34.069Z,20.89
2017-04-11T07:42:44.360Z,20.97
2017-04-11T07:43:54.653Z,20.89
2017-04-11T07:45:04.628Z,20.89
2017-04-11T07:46:15.137Z,20.89
2017-04-11T07:47:25.116Z,20.97
2017-04-11T07:48:35.407Z,20.98
2017-04-11T07:49:45.959Z,20.88
2017-04-11T07:50:56.196Z,20.88
2017-04-11T07:52:06.165Z,20.97
2017-04-11T07:53:15.829Z,20.98
2017-04-11T07:54:26.122Z,20.97
2017-04-11T07:55:36.404Z,20.89
2017-04-11T07:56:46.377Z,20.78
2017-04-11T07:57:56.348Z,20.97
2017-04-11T07:59:06.336Z,20.97
2017-04-11T08:00:16.622Z,20.78
2017-04-11T08:01:27.210Z,20.98
2017-04-11T08:02:37.206Z,20.78
2017-04-11T08:03:47.205Z,21.07
2017-04-11T08:04:56.888Z,21.08
2017-04-11T08:06:07.215Z,20.98
2017-04-11T08:07:17.789Z,21.07
2017-04-11T08:08:28.078Z,21.07
2017-04-11T08:09:38.378Z,20.88
2017-04-11T08:10:48.726Z,20.97
2017-04-11T08:11:59.034Z,21.07
2017-04-11T08:13:08.952Z,21.17
2017-04-11T08:14:19.330Z,21.17
2017-04-11T08:15:29.023Z,21.17
2017-04-11T08:16:39.297Z,21.26
2017-04-11T08:17:49.313Z,20.7
2017-04-11T08:18:59.568Z,21.17
2017-04-11T08:20:10.118Z,20.68
2017-04-11T08:21:20.410Z,21.07
2017-04-11T08:22:30.734Z,21.17
2017-04-11T08:23:41.025Z,21.07
2017-04-11T08:24:51.860Z,21.26
2017-04-11T08:26:01.528Z,21.07
2017-04-11T08:27:11.809Z,21.17
2017-04-11T08:28:22.100Z,20.97
2017-04-11T08:29:32.397Z,21.26
2017-04-11T08:30:42.974Z,21.07
2017-04-11T08:31:53.299Z,20.78
2017-04-11T08:33:03.604Z,21.26
2017-04-11T08:34:14.044Z,21.07
2017-04-11T08:35:24.355Z,20.68
2017-04-11T08:36:34.906Z,21.07
2017-04-11T08:37:45.235Z,20.68
2017-04-11T08:38:55.704Z,20.68
2017-04-11T08:40:06.504Z,20.98
2017-04-11T08:41:16.803Z,21.17
2017-04-11T08:42:27.349Z,20.68
2017-04-11T08:43:37.333Z,21.26
2017-04-11T08:44:47.016Z,21.07
2017-04-11T08:45:56.994Z,20.98
2017-04-11T08:47:06.981Z,21.08
2017-04-11T08:48:17.532Z,21.08
2017-04-11T08:49:27.205Z,20.88
2017-04-11T08:50:37.186Z,20.98
2017-04-11T08:51:47.511Z,20.78
2017-04-11T08:52:57.489Z,21.17
2017-04-11T08:54:08.087Z,20.97
2017-04-11T08:55:18.407Z,20.97
2017-04-11T08:56:28.395Z,20.88
2017-04-11T08:57:38.369Z,20.88
2017-04-11T08:58:48.045Z,20.97
2017-04-11T08:59:58.588Z,20.97
2017-04-11T09:01:08.882Z,20.89
2017-04-11T09:02:19.180Z,20.59
2017-04-11T09:03:29.467Z,20.79
2017-04-11T09:04:39.453Z,20.79
2017-04-11T09:05:49.379Z,20.59
2017-04-11T09:06:59.380Z,20.7
2017-04-11T09:08:09.658Z,20.79
2017-04-11T09:09:19.970Z,20.7
2017-04-11T09:10:30.252Z,20.12
2017-04-11T09:11:40.789Z,20.12
2017-04-11T09:12:50.471Z,20.5
2017-04-11T09:14:00.804Z,20.31
2017-04-11T09:15:11.099Z,20.21
2017-04-11T09:16:21.122Z,20.31
2017-04-11T09:17:31.651Z,20.31
2017-04-11T09:18:41.947Z,20.4
2017-04-11T09:19:52.267Z,20.4
2017-04-11T09:21:02.585Z,20.6
2017-04-11T09:22:12.573Z,20.4
2017-04-11T09:23:22.861Z,20.6
2017-04-11T09:24:32.516Z,20.4
2017-04-11T09:25:42.799Z,20.31
2017-04-11T09:26:53.091Z,20.4
2017-04-11T09:28:03.074Z,20.6
2017-04-11T09:29:13.310Z,20.6
2017-04-11T09:30:23.294Z,20.6
2017-04-11T09:31:33.583Z,20.4
2017-04-11T09:32:43.573Z,20.4
2017-04-11T09:33:53.567Z,20.4
2017-04-11T09:35:04.171Z,20.4
2017-04-11T09:36:14.474Z,20.31
2017-04-11T09:37:24.161Z,20.31
2017-04-11T09:38:34.164Z,20.6
2017-04-11T09:39:44.484Z,20.7
2017-04-11T09:40:54.395Z,20.7
2017-04-11T09:42:04.773Z,20.7
2017-04-11T09:43:15.087Z,20.5
2017-04-11T09:44:25.076Z,20.4
2017-04-11T09:45:35.363Z,20.5
2017-04-11T09:46:45.906Z,20.6
2017-04-11T09:47:56.199Z,20.5
2017-04-11T09:49:06.506Z,20.6
2017-04-11T09:50:16.507Z,20.79
2017-04-11T09:51:26.504Z,20.7
2017-04-11T09:52:36.767Z,20.7
2017-04-11T09:53:47.067Z,20.7
2017-04-11T09:54:57.361Z,20.6
2017-04-11T09:56:07.345Z,20.79
2017-04-11T09:57:17.632Z,20.79
2017-04-11T09:58:28.189Z,20.79
2017-04-11T09:59:38.508Z,20.5
2017-04-11T10:00:48.486Z,20.89
2017-04-11T10:01:58.803Z,20.98
2017-04-11T10:03:08.789Z,20.98
2017-04-11T10:04:19.338Z,20.89
2017-04-11T10:05:29.309Z,20.98
2017-04-11T10:06:38.996Z,20.89
2017-04-11T10:07:48.992Z,20.98
2017-04-11T10:08:59.291Z,21.08
2017-04-11T10:10:09.577Z,21.18
2017-04-11T10:11:19.859Z,20.6
2017-04-11T10:12:30.159Z,20.7
2017-04-11T10:13:40.467Z,20.7
2017-04-11T10:14:50.762Z,21.27
2017-04-11T10:16:01.373Z,20.98
2017-04-11T10:17:11.041Z,21.08
2017-04-11T10:18:21.347Z,20.6
2017-04-11T10:19:31.644Z,20.98
2017-04-11T10:20:41.694Z,20.7
2017-04-11T10:21:52.254Z,20.7
2017-04-11T10:23:02.541Z,20.7
2017-04-11T10:24:12.524Z,21.18
2017-04-11T10:25:22.819Z,21.18
2017-04-11T10:26:33.102Z,20.98
2017-04-11T10:27:43.393Z,20.89
2017-04-11T10:28:53.396Z,20.89
2017-04-11T10:30:02.436Z,20.6
2017-04-11T10:31:12.100Z,21.08
2017-04-11T10:32:22.389Z,21.08
2017-04-11T10:33:32.960Z,20.98
2017-04-11T10:34:42.668Z,20.98
2017-04-11T10:35:52.973Z,20.89
2017-04-11T10:37:03.266Z,20.98
2017-04-11T10:38:13.561Z,20.79
2017-04-11T10:39:23.480Z,20.89
2017-04-11T10:40:33.776Z,20.5
2017-04-11T10:41:44.082Z,20.5
2017-04-11T10:42:54.388Z,20.7
2017-04-11T10:44:04.703Z,20.7
2017-04-11T10:45:14.933Z,20.6
2017-04-11T10:46:25.239Z,20.5
2017-04-11T10:47:35.222Z,20.7
2017-04-11T10:48:45.528Z,20.7
2017-04-11T10:49:55.828Z,20.7
2017-04-11T10:51:06.364Z,20.31
2017-04-11T10:52:16.393Z,20.31
2017-04-11T10:53:26.687Z,20.5
2017-04-11T10:54:36.967Z,20.31
2017-04-11T10:55:46.948Z,20.31
2017-04-11T10:56:57.501Z,20.12
2017-04-11T10:58:07.812Z,20.21
2017-04-11T10:59:18.107Z,19.84
2017-04-11T11:00:28.396Z,19.73
2017-04-11T11:01:38.372Z,19.73
2017-04-11T11:02:48.661Z,19.74
2017-04-11T11:03:58.957Z,19.93
2017-04-11T11:05:08.941Z,20.02
2017-04-11T11:06:18.606Z,19.84
2017-04-11T11:07:28.901Z,19.65
2017-04-11T11:08:39.441Z,19.55
2017-04-11T11:09:49.734Z,19.55
2017-04-11T11:10:59.726Z,19.74
2017-04-11T11:12:10.032Z,19.93
2017-04-11T11:13:20.324Z,19.74
2017-04-11T11:14:30.876Z,19.65
2017-04-11T11:15:40.884Z,19.74
2017-04-11T11:16:51.178Z,19.65
2017-04-11T11:18:01.160Z,19.74
2017-04-11T11:19:11.502Z,19.93
2017-04-11T11:20:22.050Z,19.74
2017-04-11T11:21:32.330Z,19.74
2017-04-11T11:22:42.626Z,19.65
2017-04-11T11:23:52.629Z,19.74
2017-04-11T11:25:02.912Z,19.74
2017-04-11T11:26:13.459Z,19.74
2017-04-11T11:27:23.430Z,19.65
2017-04-11T11:28:33.714Z,19.93
2017-04-11T11:29:44.003Z,19.74
2017-04-11T11:30:54.301Z,19.74
2017-04-11T11:32:04.851Z,19.74
2017-04-11T11:33:15.132Z,19.65
2017-04-11T11:34:25.439Z,19.65
2017-04-11T11:35:35.740Z,19.65
2017-04-11T11:36:46.030Z,19.84
2017-04-11T11:37:56.618Z,19.65
2017-04-11T11:39:06.599Z,19.74
2017-04-11T11:40:16.576Z,19.74
2017-04-11T11:41:26.875Z,19.84
2017-04-11T11:42:36.859Z,19.74
2017-04-11T11:43:47.104Z,19.65
2017-04-11T11:44:57.405Z,19.84
2017-04-11T11:46:07.695Z,19.84
2017-04-11T11:47:17.997Z,19.74
2017-04-11T11:48:27.673Z,19.55
2017-04-11T11:49:38.284Z,19.55
2017-04-11T11:50:48.578Z,19.93
2017-04-11T11:51:58.868Z,20.23
2017-04-11T11:53:09.197Z,20.32
2017-04-11T11:54:19.193Z,20.61
2017-04-11T11:55:29.109Z,20.42
2017-04-11T11:56:39.100Z,20.32
2017-04-11T11:57:49.394Z,20.42
2017-04-11T11:58:59.684Z,20.7
2017-04-11T12:00:09.995Z,20.7
2017-04-11T12:01:20.368Z,20.7
2017-04-11T12:02:30.679Z,20.7
2017-04-11T12:03:40.982Z,20.7
2017-04-11T12:04:51.284Z,20.7
2017-04-11T12:06:01.598Z,20.7
2017-04-11T12:07:12.185Z,20.7
2017-04-11T12:08:22.471Z,20.51
2017-04-11T12:09:32.684Z,20.51
2017-04-11T12:10:42.986Z,20.61
2017-04-11T12:11:53.330Z,21
2017-04-11T12:13:03.608Z,21
2017-04-11T12:14:13.898Z,21
2017-04-11T12:15:23.577Z,21.28
2017-04-11T12:16:33.863Z,20.9
2017-04-11T12:17:43.856Z,21.19
2017-04-11T12:18:54.421Z,20.9
2017-04-11T12:20:04.712Z,21.28
2017-04-11T12:21:15.016Z,20.9
2017-04-11T12:22:25.006Z,20.8
2017-04-11T12:23:35.297Z,20.9
2017-04-11T12:24:45.868Z,21.09
2017-04-11T12:25:55.857Z,21.28
2017-04-11T12:27:05.849Z,21.19
2017-04-11T12:28:16.146Z,21.19
2017-04-11T12:29:26.129Z,21.28
2017-04-11T12:30:36.734Z,21.28
2017-04-11T12:31:46.820Z,21.28
2017-04-11T12:32:57.116Z,21.19
2017-04-11T12:34:07.443Z,21.09
2017-04-11T12:35:17.423Z,21.38
2017-04-11T12:36:27.673Z,21.38
2017-04-11T12:37:37.960Z,21.19
2017-04-11T12:38:48.314Z,21.19
2017-04-11T12:39:58.608Z,21.38
2017-04-11T12:41:08.298Z,21.38
2017-04-11T12:42:18.838Z,21.28
2017-04-11T12:43:29.134Z,21.38
2017-04-11T12:44:39.435Z,21.38
2017-04-11T12:45:49.724Z,21.38
2017-04-11T12:46:59.402Z,21.38
2017-04-11T12:48:09.637Z,21.38
2017-04-11T12:49:19.937Z,21.38
2017-04-11T12:50:29.905Z,21.48
2017-04-11T12:51:39.567Z,21.19
2017-04-11T12:52:49.546Z,21.28
2017-04-11T12:53:59.776Z,21.38
2017-04-11T12:55:10.068Z,21.28
2017-04-11T12:56:20.059Z,21.19
2017-04-11T12:57:30.037Z,21.19
2017-04-11T12:58:40.324Z,21.19
2017-04-11T12:59:50.865Z,21.18
2017-04-11T13:01:00.534Z,21.27
2017-04-11T13:02:11.019Z,21.27
2017-04-11T13:03:21.306Z,20.79
2017-04-11T13:04:31.590Z,20.79
2017-04-11T13:05:42.021Z,20.79
2017-04-11T13:06:52.303Z,20.79
2017-04-11T13:08:02.592Z,20.7
2017-04-11T13:09:12.565Z,20.89
2017-04-11T13:10:22.541Z,20.89
2017-04-11T13:11:33.071Z,20.98
2017-04-11T13:12:43.364Z,21.08
2017-04-11T13:13:53.356Z,21.08
2017-04-11T13:15:03.645Z,20.89
2017-04-11T13:16:13.949Z,20.89
2017-04-11T13:17:24.533Z,20.98
2017-04-11T13:18:34.213Z,21.18
2017-04-11T13:19:44.500Z,21.27
2017-04-11T13:20:54.497Z,20.6
2017-04-11T13:22:04.155Z,20.6
2017-04-11T13:23:14.447Z,20.89
2017-04-11T13:24:24.746Z,20.89
2017-04-11T13:25:34.415Z,20.89
2017-04-11T13:26:44.703Z,20.89
2017-04-11T13:27:54.685Z,20.89
2017-04-11T13:29:04.912Z,20.89
2017-04-11T13:30:15.209Z,20.89
2017-04-11T13:31:25.200Z,20.7
2017-04-11T13:32:35.176Z,21.18
2017-04-11T13:33:45.469Z,21.18
2017-04-11T13:34:55.743Z,21.18
2017-04-11T13:36:05.424Z,20.98
2017-04-11T13:37:15.747Z,20.98
2017-04-11T13:38:26.066Z,20.98
2017-04-11T13:39:36.372Z,21.18
2017-04-11T13:40:46.602Z,20.98
2017-04-11T13:41:56.273Z,20.98
2017-04-11T13:43:06.553Z,20.6
2017-04-11T13:44:16.839Z,21.18
2017-04-11T13:45:27.136Z,21.08
2017-04-11T13:46:37.403Z,21.18
2017-04-11T13:47:47.372Z,20.98
2017-04-11T13:48:57.036Z,21.27
2017-04-11T13:50:07.343Z,21.18
2017-04-11T13:51:17.640Z,21.27
2017-04-11T13:52:27.870Z,21.08
2017-04-11T13:53:37.533Z,21.18
2017-04-11T13:54:47.834Z,20.98
2017-04-11T13:55:58.114Z,21.08
2017-04-11T13:57:08.415Z,21.08
2017-04-11T13:58:18.650Z,20.98
2017-04-11T13:59:28.638Z,21.18
2017-04-11T14:00:38.618Z,20.98
2017-04-11T14:01:48.594Z,20.98
2017-04-11T14:02:58.256Z,21.08
2017-04-11T14:04:08.549Z,21.08
2017-04-11T14:05:18.550Z,20.98
2017-04-11T14:06:28.844Z,20.98
2017-04-11T14:07:39.146Z,20.98
2017-04-11T14:08:49.149Z,20.98
2017-04-11T14:09:59.702Z,20.79
2017-04-11T14:11:09.369Z,20.98
2017-04-11T14:12:19.504Z,20.89
2017-04-11T14:13:29.481Z,20.79
2017-04-11T14:14:39.786Z,20.98
2017-04-11T14:15:50.033Z,20.89
2017-04-11T14:17:00.000Z,20.89
2017-04-11T14:18:10.304Z,20.89
2017-04-11T14:19:20.595Z,20.79
2017-04-11T14:20:30.890Z,20.89
2017-04-11T14:21:41.182Z,20.5
2017-04-11T14:22:51.473Z,20.68
2017-04-11T14:24:01.767Z,20.79
2017-04-11T14:25:11.767Z,20.6
2017-04-11T14:26:21.743Z,20.6
2017-04-11T14:27:32.027Z,20.7
2017-04-11T14:28:42.327Z,20.5
2017-04-11T14:29:52.311Z,20.4
2017-04-11T14:31:02.328Z,20.21
2017-04-11T14:32:12.304Z,20.4
2017-04-11T14:33:22.890Z,20.4
2017-04-11T14:34:33.381Z,20.31
2017-04-11T14:35:43.676Z,20.4
2017-04-11T14:36:53.964Z,20.31
2017-04-11T14:38:04.452Z,20.31
2017-04-11T14:39:14.733Z,20.4
2017-04-11T14:40:24.731Z,20.4
2017-04-11T14:41:35.021Z,20.4
2017-04-11T14:42:45.002Z,20.4
2017-04-11T14:43:55.331Z,20.31
2017-04-11T14:45:05.884Z,20.5
2017-04-11T14:46:16.250Z,20.5
2017-04-11T14:47:26.529Z,20.4
2017-04-11T14:48:36.518Z,20.31
2017-04-11T14:49:46.512Z,20.4
2017-04-11T14:50:57.073Z,20.21
2017-04-11T14:52:07.367Z,20.21
2017-04-11T14:53:17.346Z,20.4
2017-04-11T14:54:27.705Z,20.31
2017-04-11T14:55:37.688Z,20.31
2017-04-11T14:56:48.233Z,20.21
2017-04-11T14:57:58.527Z,20.3
2017-04-11T14:59:08.828Z,20.31
2017-04-11T15:00:18.513Z,20.3
2017-04-11T15:01:28.825Z,20.31
2017-04-11T15:02:39.376Z,20.3
2017-04-11T15:03:49.066Z,20.31
2017-04-11T15:04:59.069Z,20.4
2017-04-11T15:06:09.362Z,20.4
2017-04-11T15:07:19.368Z,20.2
2017-04-11T15:08:29.913Z,20.3